createdAt,value
2023-03-06T00:00:37.062Z,4.05
2023-03-06T00:03:04.721Z,7.40
2023-03-06T00:05:31.634Z,4.43
2023-03-06T00:07:58.698Z,3.90
2023-03-06T00:10:29.823Z,3.03
2023-03-06T00:12:59.261Z,2.35
2023-03-06T00:15:27.437Z,2.17
2023-03-06T00:17:55.429Z,3.22
2023-03-06T00:20:22.902Z,2.15
2023-03-06T00:22:50.725Z,1.75
2023-03-06T00:25:20.555Z,4.80
2023-03-06T00:27:48.298Z,2.58
2023-03-06T00:30:19.293Z,3.85
2023-03-06T00:32:46.263Z,8.55
2023-03-06T00:35:14.552Z,1.13
2023-03-06T00:37:42.713Z,2.75
2023-03-06T00:40:14.216Z,3.75
2023-03-06T00:42:41.428Z,3.95
2023-03-06T00:45:09.711Z,1.92
2023-03-06T00:47:37.198Z,4.93
2023-03-06T00:50:05.154Z,2.67
2023-03-06T00:52:32.190Z,6.13
2023-03-06T00:54:59.083Z,5.68
2023-03-06T00:57:26.167Z,2.78
2023-03-06T00:59:52.949Z,2.13
2023-03-06T01:02:20.387Z,4.70
2023-03-06T01:04:47.433Z,2.75
2023-03-06T01:07:14.523Z,4.65
2023-03-06T01:09:42.021Z,2.78
2023-03-06T01:12:09.169Z,3.67
2023-03-06T01:14:36.124Z,3.47
2023-03-06T01:17:03.182Z,3.95
2023-03-06T01:19:30.259Z,3.63
2023-03-06T01:21:57.303Z,2.40
2023-03-06T01:24:25.900Z,2.28
2023-03-06T01:26:53.094Z,2.45
2023-03-06T01:29:20.730Z,2.38
2023-03-06T01:31:47.883Z,3.65
2023-03-06T01:34:14.917Z,4.70
2023-03-06T01:36:41.956Z,4.47
2023-03-06T01:39:09.306Z,6.80
2023-03-06T01:41:36.745Z,10.93
2023-03-06T01:44:04.066Z,3.50
2023-03-06T01:46:42.591Z,7.68
2023-03-06T01:49:36.998Z,3.65
2023-03-06T01:52:13.711Z,1.83
2023-03-06T01:54:49.779Z,3.10
2023-03-06T01:57:24.161Z,2.38
2023-03-06T01:59:56.157Z,3.50
2023-03-06T02:02:23.256Z,2.33
2023-03-06T02:04:50.268Z,7.15
2023-03-06T02:07:20.054Z,2.30
2023-03-06T02:09:47.582Z,3.42
2023-03-06T02:12:19.472Z,2.67
2023-03-06T02:14:47.433Z,4.32
2023-03-06T02:17:17.336Z,1.83
2023-03-06T02:19:52.727Z,2.10
2023-03-06T02:22:20.405Z,6.20
2023-03-06T02:24:54.365Z,4.28
2023-03-06T02:27:23.055Z,1.73
2023-03-06T02:29:50.082Z,2.20
2023-03-06T02:32:17.040Z,2.28
2023-03-06T02:34:52.069Z,2.35
2023-03-06T02:37:19.609Z,7.15
2023-03-06T02:39:55.143Z,3.47
2023-03-06T02:42:25.524Z,2.90
2023-03-06T02:44:54.098Z,2.58
2023-03-06T02:47:21.049Z,3.05
2023-03-06T02:49:48.081Z,2.70
2023-03-06T02:52:15.066Z,4.07
2023-03-06T02:54:42.864Z,2.25
2023-03-06T02:57:10.093Z,3.58
2023-03-06T02:59:37.005Z,2.05
2023-03-06T03:02:04.015Z,2.22
2023-03-06T03:04:31.117Z,2.05
2023-03-06T03:06:58.161Z,1.63
2023-03-06T03:09:25.126Z,6.20
2023-03-06T03:11:52.183Z,4.60
2023-03-06T03:14:19.178Z,1.92
2023-03-06T03:16:46.442Z,4.47
2023-03-06T03:19:13.372Z,1.77
2023-03-06T03:21:41.729Z,4.57
2023-03-06T03:24:09.159Z,2.40
2023-03-06T03:26:36.289Z,1.92
2023-03-06T03:29:05.323Z,3.15
2023-03-06T03:31:32.988Z,3.88
2023-03-06T03:34:00.620Z,2.42
2023-03-06T03:36:27.749Z,8.80
2023-03-06T03:38:54.927Z,1.77
2023-03-06T03:41:22.120Z,2.13
2023-03-06T03:43:48.995Z,5.68
2023-03-06T03:46:18.222Z,4.35
2023-03-06T03:48:45.532Z,9.57
2023-03-06T03:51:14.209Z,8.27
2023-03-06T03:53:41.085Z,4.18
2023-03-06T03:56:09.096Z,1.63
2023-03-06T03:58:36.502Z,3.33
2023-03-06T04:01:03.752Z,2.58
2023-03-06T04:03:30.788Z,4.03
2023-03-06T04:05:58.233Z,3.97
2023-03-06T04:08:26.471Z,3.05
2023-03-06T04:10:54.702Z,3.50
2023-03-06T04:13:22.670Z,5.10
2023-03-06T04:15:51.852Z,2.85
2023-03-06T04:18:20.791Z,2.25
2023-03-06T04:20:48.656Z,3.00
2023-03-06T04:23:16.699Z,2.60
2023-03-06T04:25:43.676Z,4.15
2023-03-06T04:28:11.712Z,6.55
2023-03-06T04:30:38.861Z,6.15
2023-03-06T04:33:06.166Z,3.10
2023-03-06T04:35:33.391Z,2.38
2023-03-06T04:38:00.373Z,2.38
2023-03-06T04:40:29.509Z,1.67
2023-03-06T04:42:58.290Z,3.40
2023-03-06T04:45:26.423Z,2.50
2023-03-06T04:47:53.863Z,4.60
2023-03-06T04:50:21.477Z,4.18
2023-03-06T04:52:48.565Z,2.17
2023-03-06T04:55:17.055Z,4.25
2023-03-06T04:57:46.105Z,3.15
2023-03-06T05:00:19.598Z,4.10
2023-03-06T05:02:46.831Z,2.70
2023-03-06T05:05:14.861Z,2.75
2023-03-06T05:07:42.397Z,2.83
2023-03-06T05:10:13.335Z,2.72
2023-03-06T05:12:40.494Z,3.42
2023-03-06T05:15:10.316Z,2.97
2023-03-06T05:17:37.826Z,2.35
2023-03-06T05:20:07.636Z,1.52
2023-03-06T05:22:34.867Z,4.85
2023-03-06T05:25:01.866Z,3.45
2023-03-06T05:27:29.036Z,4.43
2023-03-06T05:29:55.924Z,1.65
2023-03-06T05:32:23.231Z,3.30
2023-03-06T05:34:50.462Z,3.45
2023-03-06T05:37:17.634Z,3.75
2023-03-06T05:39:44.779Z,7.28
2023-03-06T05:42:11.781Z,2.67
2023-03-06T05:44:38.615Z,3.53
2023-03-06T05:47:05.815Z,5.28
2023-03-06T05:49:34.846Z,2.78
2023-03-06T05:52:04.395Z,3.80
2023-03-06T05:54:32.251Z,2.50
2023-03-06T05:56:59.258Z,3.92
2023-03-06T05:59:28.695Z,2.50
2023-03-06T06:01:56.137Z,4.10
2023-03-06T06:04:24.359Z,2.90
2023-03-06T06:06:55.689Z,3.25
2023-03-06T06:09:23.073Z,2.35
2023-03-06T06:11:54.982Z,2.65
2023-03-06T06:14:22.203Z,2.08
2023-03-06T06:16:49.472Z,4.43
2023-03-06T06:19:20.413Z,3.40
2023-03-06T06:21:54.385Z,3.78
2023-03-06T06:24:24.408Z,1.58
2023-03-06T06:26:53.771Z,1.30
2023-03-06T06:29:21.641Z,2.53
2023-03-06T06:31:48.978Z,2.65
2023-03-06T06:34:16.326Z,3.95
2023-03-06T06:36:43.629Z,2.38
2023-03-06T06:39:14.323Z,3.30
2023-03-06T06:41:59.505Z,2.92
2023-03-06T06:44:28.041Z,6.15
2023-03-06T06:47:25.358Z,2.20
2023-03-06T06:49:41.781Z,1.40
2023-03-06T06:52:08.782Z,3.72
2023-03-06T06:54:35.703Z,1.48
2023-03-06T06:57:02.727Z,2.13
2023-03-06T06:59:29.816Z,2.10
2023-03-06T07:01:56.728Z,2.30
2023-03-06T07:04:23.716Z,2.00
2023-03-06T07:06:50.673Z,1.50
2023-03-06T07:09:19.846Z,4.18
2023-03-06T07:11:46.508Z,4.50
2023-03-06T07:14:13.442Z,2.28
2023-03-06T07:16:40.388Z,2.75
2023-03-06T07:19:07.983Z,1.75
2023-03-06T07:21:35.105Z,4.50
2023-03-06T07:24:01.982Z,6.32
2023-03-06T07:26:29.034Z,3.85
2023-03-06T07:28:56.032Z,2.60
2023-03-06T07:31:25.816Z,2.22
2023-03-06T07:33:54.334Z,3.75
2023-03-06T07:36:23.154Z,2.22
2023-03-06T07:38:50.437Z,6.40
2023-03-06T07:41:21.873Z,3.15
2023-03-06T07:43:50.011Z,1.98
2023-03-06T07:46:16.858Z,1.58
2023-03-06T07:48:44.903Z,1.63
2023-03-06T07:51:22.734Z,4.63
2023-03-06T07:53:50.332Z,6.82
2023-03-06T07:56:17.700Z,3.53
2023-03-06T07:58:46.550Z,8.63
2023-03-06T08:01:20.040Z,2.58
2023-03-06T08:03:47.926Z,4.95
2023-03-06T08:06:18.217Z,3.85
2023-03-06T08:08:46.503Z,3.15
2023-03-06T08:11:15.740Z,1.80
2023-03-06T08:13:43.349Z,3.65
2023-03-06T08:16:11.303Z,1.70
2023-03-06T08:18:40.066Z,3.08
2023-03-06T08:21:10.713Z,1.67
2023-03-06T08:23:38.199Z,1.95
2023-03-06T08:26:12.325Z,2.30
2023-03-06T08:28:39.660Z,4.97
2023-03-06T08:31:10.918Z,1.77
2023-03-06T08:33:39.260Z,1.73
2023-03-06T08:36:08.595Z,1.27
2023-03-06T08:38:35.410Z,3.25
2023-03-06T08:41:02.326Z,0.75
2023-03-06T08:43:29.154Z,1.63
2023-03-06T08:45:57.833Z,1.55
2023-03-06T08:48:25.261Z,1.30
2023-03-06T08:50:53.086Z,4.70
2023-03-06T08:53:21.589Z,4.95
2023-03-06T08:55:50.249Z,2.38
2023-03-06T08:58:17.549Z,0.95
2023-03-06T09:00:44.816Z,1.40
2023-03-06T09:03:11.973Z,2.33
2023-03-06T09:05:40.592Z,3.80
2023-03-06T09:08:07.810Z,1.20
2023-03-06T09:10:35.042Z,1.77
2023-03-06T09:13:02.181Z,4.00
2023-03-06T09:15:29.285Z,3.70
2023-03-06T09:17:56.298Z,3.47
2023-03-06T09:20:23.461Z,1.17
2023-03-06T09:22:50.433Z,2.78
2023-03-06T09:25:22.545Z,0.75
2023-03-06T09:28:01.849Z,3.38
2023-03-06T09:30:32.192Z,2.55
2023-03-06T09:32:59.043Z,2.70
2023-03-06T09:35:25.882Z,1.58
2023-03-06T09:37:52.828Z,1.58
2023-03-06T09:40:55.633Z,2.63
2023-03-06T09:43:30.380Z,3.17
2023-03-06T09:45:58.533Z,3.05
2023-03-06T09:48:42.176Z,2.17
2023-03-06T09:51:17.138Z,2.58
2023-03-06T09:53:46.765Z,1.33
2023-03-06T09:56:16.553Z,2.58
2023-03-06T09:58:57.849Z,9.45
2023-03-06T10:01:30.634Z,2.50
2023-03-06T10:04:10.357Z,1.38
2023-03-06T10:06:53.477Z,2.25
2023-03-06T10:09:32.318Z,1.77
2023-03-06T10:12:04.033Z,2.90
2023-03-06T10:14:38.868Z,1.77
2023-03-06T10:17:17.837Z,2.13
2023-03-06T10:19:45.066Z,2.17
2023-03-06T10:22:35.137Z,1.92
2023-03-06T10:25:28.167Z,2.03
2023-03-06T10:28:16.220Z,3.47
2023-03-06T10:31:03.232Z,4.78
2023-03-06T10:33:32.980Z,3.22
2023-03-06T10:36:00.178Z,1.92
2023-03-06T10:38:37.789Z,2.78
2023-03-06T10:41:21.423Z,3.03
2023-03-06T10:44:00.158Z,2.00
2023-03-06T10:46:30.402Z,1.67
2023-03-06T10:49:06.498Z,1.10
2023-03-06T10:51:35.730Z,2.28
2023-03-06T10:54:24.172Z,2.40
2023-03-06T10:56:50.919Z,2.20
2023-03-06T10:59:18.918Z,1.20
2023-03-06T11:01:49.723Z,1.50
2023-03-06T11:04:27.832Z,1.40
2023-03-06T11:07:14.515Z,0.77
2023-03-06T11:09:56.676Z,2.28
2023-03-06T11:12:26.683Z,3.58
2023-03-06T11:15:14.568Z,1.55
2023-03-06T11:18:07.789Z,2.53
2023-03-06T11:20:51.364Z,2.58
2023-03-06T11:23:29.421Z,1.02
2023-03-06T11:26:22.122Z,4.35
2023-03-06T11:28:53.810Z,1.75
2023-03-06T11:31:38.141Z,3.67
2023-03-06T11:34:19.021Z,1.77
2023-03-06T11:37:00.685Z,1.95
2023-03-06T11:39:39.409Z,1.83
2023-03-06T11:42:18.904Z,2.47
2023-03-06T11:45:20.472Z,0.98
2023-03-06T11:47:54.615Z,1.45
2023-03-06T11:50:42.085Z,4.97
2023-03-06T11:53:21.497Z,1.80
2023-03-06T11:55:54.475Z,2.00
2023-03-06T11:58:41.709Z,2.13
2023-03-06T12:01:48.853Z,3.67
2023-03-06T12:04:31.153Z,1.50
2023-03-06T12:07:16.445Z,1.05
2023-03-06T12:09:51.276Z,1.40
2023-03-06T12:12:24.344Z,1.83
2023-03-06T12:14:54.306Z,0.82
2023-03-06T12:17:46.084Z,1.13
2023-03-06T12:20:49.503Z,1.15
2023-03-06T12:23:38.513Z,1.73
2023-03-06T12:26:08.531Z,2.15
2023-03-06T12:28:56.829Z,1.63
2023-03-06T12:31:45.377Z,0.82
2023-03-06T12:35:07.122Z,2.67
2023-03-06T12:38:30.417Z,1.85
2023-03-06T12:41:06.332Z,1.20
2023-03-06T12:43:51.538Z,1.02
2023-03-06T12:46:27.601Z,2.35
2023-03-06T12:49:17.820Z,2.13
2023-03-06T12:51:53.230Z,1.45
2023-03-06T12:54:23.521Z,3.40
2023-03-06T12:56:51.889Z,1.73
2023-03-06T12:59:39.298Z,1.85
2023-03-06T13:02:27.269Z,2.67
2023-03-06T13:04:57.135Z,1.10
2023-03-06T13:07:52.984Z,2.97
2023-03-06T13:10:29.107Z,1.13
2023-03-06T13:13:01.290Z,0.65
2023-03-06T13:16:10.896Z,1.13
2023-03-06T13:18:38.037Z,1.02
2023-03-06T13:21:05.537Z,1.55
2023-03-06T13:23:32.534Z,4.22
2023-03-06T13:26:00.494Z,1.20
2023-03-06T13:28:40.400Z,1.67
2023-03-06T13:31:18.178Z,1.20
2023-03-06T13:33:56.545Z,2.47
2023-03-06T13:36:29.437Z,1.10
2023-03-06T13:39:00.966Z,2.67
2023-03-06T13:41:58.474Z,2.17
2023-03-06T13:44:25.451Z,6.25
2023-03-06T13:47:02.699Z,3.45
2023-03-06T13:49:30.093Z,0.65
2023-03-06T13:51:59.881Z,1.15
2023-03-06T13:54:38.437Z,1.05
2023-03-06T13:57:33.538Z,5.07
2023-03-06T14:00:21.421Z,3.53
2023-03-06T14:03:17.112Z,1.58
2023-03-06T14:05:51.650Z,0.50
2023-03-06T14:08:32.449Z,0.98
2023-03-06T14:11:05.986Z,6.85
2023-03-06T14:13:46.540Z,1.48
2023-03-06T14:16:26.929Z,2.92
2023-03-06T14:18:56.858Z,1.23
2023-03-06T14:21:31.131Z,1.17
2023-03-06T14:24:00.790Z,0.80
2023-03-06T14:26:32.965Z,4.43
2023-03-06T14:29:02.388Z,1.88
2023-03-06T14:31:36.512Z,3.50
2023-03-06T14:34:18.471Z,2.10
2023-03-06T14:36:49.129Z,3.42
2023-03-06T14:39:22.305Z,5.25
2023-03-06T14:41:49.333Z,4.32
2023-03-06T14:44:26.558Z,2.80
2023-03-06T14:47:10.942Z,1.75
2023-03-06T14:49:37.905Z,3.58
2023-03-06T14:52:05.007Z,1.77
2023-03-06T14:54:34.456Z,2.15
2023-03-06T14:57:12.175Z,3.78
2023-03-06T14:59:54.902Z,1.25
2023-03-06T15:02:26.665Z,0.50
2023-03-06T15:04:58.474Z,1.35
2023-03-06T15:07:31.487Z,1.38
2023-03-06T15:09:59.318Z,2.97
2023-03-06T15:12:33.967Z,3.80
2023-03-06T15:15:08.120Z,1.33
2023-03-06T15:17:42.191Z,7.07
2023-03-06T15:20:37.092Z,1.17
2023-03-06T15:23:13.520Z,2.83
2023-03-06T15:25:40.206Z,1.50
2023-03-06T15:28:28.738Z,3.30
2023-03-06T15:31:10.616Z,9.07
2023-03-06T15:33:37.984Z,1.90
2023-03-06T15:36:07.115Z,3.53
2023-03-06T15:38:43.199Z,1.40
2023-03-06T15:41:31.906Z,2.17
2023-03-06T15:44:00.581Z,1.92
2023-03-06T15:46:28.549Z,2.40
2023-03-06T15:49:03.224Z,1.98
2023-03-06T15:51:31.826Z,1.75
2023-03-06T15:54:11.174Z,2.65
2023-03-06T15:56:44.998Z,7.65
2023-03-06T15:59:31.501Z,5.20
2023-03-06T16:02:02.536Z,2.97
2023-03-06T16:04:30.340Z,2.80
2023-03-06T16:06:57.207Z,3.03
2023-03-06T16:09:24.298Z,3.40
2023-03-06T16:11:50.989Z,1.13
2023-03-06T16:14:21.496Z,6.82
2023-03-06T16:16:49.424Z,2.50
2023-03-06T16:19:26.016Z,4.32
2023-03-06T16:21:54.929Z,1.75
2023-03-06T16:24:22.025Z,1.98
2023-03-06T16:26:51.315Z,1.52
2023-03-06T16:29:26.449Z,3.50
2023-03-06T16:31:55.539Z,2.88
2023-03-06T16:34:22.985Z,1.38
2023-03-06T16:36:50.877Z,4.07
2023-03-06T16:39:23.045Z,2.65
2023-03-06T16:41:50.874Z,2.53
2023-03-06T16:44:17.949Z,7.25
2023-03-06T16:46:47.363Z,2.85
2023-03-06T16:49:20.220Z,1.42
2023-03-06T16:51:47.217Z,1.20
2023-03-06T16:54:14.255Z,1.52
2023-03-06T16:56:41.262Z,11.60
2023-03-06T16:59:08.843Z,9.82
2023-03-06T17:01:35.979Z,1.80
2023-03-06T17:04:03.635Z,1.40
2023-03-06T17:06:30.702Z,1.75
2023-03-06T17:08:58.443Z,1.65
2023-03-06T17:11:25.523Z,1.95
2023-03-06T17:13:52.602Z,2.33
2023-03-06T17:16:19.733Z,11.13
2023-03-06T17:18:46.899Z,5.68
2023-03-06T17:21:17.516Z,10.80
2023-03-06T17:23:44.891Z,1.58
2023-03-06T17:26:15.355Z,3.88
2023-03-06T17:28:42.955Z,5.07
2023-03-06T17:31:21.317Z,2.88
2023-03-06T17:33:48.800Z,6.25
2023-03-06T17:36:16.473Z,7.88
2023-03-06T17:38:43.685Z,3.75
2023-03-06T17:41:12.090Z,6.55
2023-03-06T17:43:39.727Z,31.17
2023-03-06T17:46:08.865Z,15.13
2023-03-06T17:48:36.289Z,17.55
2023-03-06T17:51:04.349Z,6.72
2023-03-06T17:53:32.640Z,9.13
2023-03-06T17:55:59.671Z,8.05
2023-03-06T17:58:27.348Z,5.72
2023-03-06T18:00:54.548Z,10.73
2023-03-06T18:03:21.602Z,7.53
2023-03-06T18:05:48.569Z,5.80
2023-03-06T18:08:16.072Z,5.07
2023-03-06T18:10:47.695Z,6.50
2023-03-06T18:13:14.542Z,5.60
2023-03-06T18:15:41.851Z,8.02
2023-03-06T18:18:09.406Z,6.80
2023-03-06T18:20:42.184Z,6.45
2023-03-06T18:23:09.150Z,9.10
2023-03-06T18:25:36.220Z,6.72
2023-03-06T18:28:02.943Z,6.95
2023-03-06T18:30:30.008Z,6.57
2023-03-06T18:32:57.020Z,21.42
2023-03-06T18:35:23.777Z,25.42
2023-03-06T18:37:50.672Z,19.90
2023-03-06T18:40:18.134Z,16.83
2023-03-06T18:42:45.217Z,16.77
2023-03-06T18:45:13.045Z,20.40
2023-03-06T18:47:40.905Z,11.60
2023-03-06T18:50:08.225Z,16.55
2023-03-06T18:52:35.235Z,10.70
2023-03-06T18:55:02.177Z,12.05
2023-03-06T18:57:30.406Z,9.07
2023-03-06T18:59:57.486Z,11.02
2023-03-06T19:02:24.207Z,9.27
2023-03-06T19:04:53.092Z,8.02
2023-03-06T19:07:19.929Z,12.52
2023-03-06T19:09:49.072Z,8.77
2023-03-06T19:12:16.933Z,10.98
2023-03-06T19:14:44.413Z,9.93
2023-03-06T19:17:11.258Z,8.85
2023-03-06T19:19:38.316Z,6.68
2023-03-06T19:22:05.397Z,6.40
2023-03-06T19:24:32.169Z,4.15
2023-03-06T19:26:59.182Z,6.43
2023-03-06T19:29:26.008Z,13.93
2023-03-06T19:31:53.070Z,8.48
2023-03-06T19:34:19.854Z,9.23
2023-03-06T19:36:46.661Z,16.92
2023-03-06T19:39:13.578Z,11.27
2023-03-06T19:41:40.524Z,10.32
2023-03-06T19:44:07.304Z,12.30
2023-03-06T19:46:35.350Z,14.07
2023-03-06T19:49:05.778Z,10.90
2023-03-06T19:51:32.613Z,11.82
2023-03-06T19:53:59.791Z,13.65
2023-03-06T19:56:29.291Z,13.60
2023-03-06T19:58:56.655Z,23.20
2023-03-06T20:01:25.202Z,25.50
2023-03-06T20:04:00.124Z,24.50
2023-03-06T20:06:37.805Z,25.45
2023-03-06T20:09:08.068Z,39.88
2023-03-06T20:11:35.207Z,29.65
2023-03-06T20:14:04.516Z,25.88
2023-03-06T20:16:32.593Z,24.05
2023-03-06T20:19:01.082Z,21.77
2023-03-06T20:21:30.026Z,21.17
2023-03-06T20:23:58.429Z,18.23
2023-03-06T20:26:28.479Z,19.60
2023-03-06T20:28:55.724Z,17.95
2023-03-06T20:31:25.982Z,13.27
2023-03-06T20:33:55.383Z,13.30
2023-03-06T20:36:29.086Z,11.27
2023-03-06T20:38:58.876Z,13.48
2023-03-06T20:41:27.745Z,14.38
2023-03-06T20:43:54.972Z,14.23
2023-03-06T20:46:23.224Z,8.45
2023-03-06T20:48:52.602Z,10.63
2023-03-06T20:51:31.754Z,18.70
2023-03-06T20:54:00.844Z,12.23
2023-03-06T20:56:30.852Z,10.13
2023-03-06T20:58:58.470Z,11.20
2023-03-06T21:01:39.468Z,8.43
2023-03-06T21:04:06.859Z,13.57
2023-03-06T21:06:34.112Z,7.03
2023-03-06T21:09:02.102Z,9.35
2023-03-06T21:11:29.220Z,8.10
2023-03-06T21:13:56.790Z,10.32
2023-03-06T21:16:25.461Z,10.20
2023-03-06T21:18:54.868Z,9.55
2023-03-06T21:21:24.595Z,8.10
2023-03-06T21:23:51.917Z,10.65
2023-03-06T21:26:21.292Z,9.82
2023-03-06T21:28:48.143Z,15.05
2023-03-06T21:31:17.478Z,11.98
2023-03-06T21:33:45.520Z,15.00
2023-03-06T21:36:12.362Z,14.07
2023-03-06T21:38:39.618Z,12.65
2023-03-06T21:41:08.986Z,13.50
2023-03-06T21:43:35.969Z,11.10
2023-03-06T21:46:03.107Z,13.52
2023-03-06T21:48:30.103Z,11.07
2023-03-06T21:51:13.551Z,10.85
2023-03-06T21:53:45.017Z,9.25
2023-03-06T21:56:13.791Z,10.50
2023-03-06T21:58:40.881Z,12.93
2023-03-06T22:01:17.271Z,8.35
2023-03-06T22:03:44.300Z,6.22
2023-03-06T22:06:16.570Z,7.47
2023-03-06T22:08:44.395Z,9.40
2023-03-06T22:11:14.838Z,6.60
2023-03-06T22:13:42.013Z,5.97
2023-03-06T22:16:09.276Z,7.85
2023-03-06T22:18:36.807Z,7.25
2023-03-06T22:21:12.530Z,8.43
2023-03-06T22:23:40.686Z,10.82
2023-03-06T22:26:10.602Z,10.27
2023-03-06T22:28:37.580Z,6.38
2023-03-06T22:31:06.979Z,13.80
2023-03-06T22:33:34.716Z,15.65
2023-03-06T22:36:08.058Z,12.85
2023-03-06T22:38:36.592Z,4.45
2023-03-06T22:41:04.236Z,8.15
2023-03-06T22:43:31.897Z,12.68
2023-03-06T22:46:03.672Z,5.72
2023-03-06T22:48:31.168Z,8.07
2023-03-06T22:51:06.671Z,10.05
2023-03-06T22:53:34.105Z,6.55
2023-03-06T22:56:03.384Z,9.40
2023-03-06T22:58:37.362Z,6.35
2023-03-06T23:01:10.093Z,5.40
2023-03-06T23:03:39.084Z,4.45
2023-03-06T23:06:18.192Z,4.50
2023-03-06T23:08:49.564Z,6.43
2023-03-06T23:11:21.830Z,3.97
2023-03-06T23:13:48.757Z,6.60
2023-03-06T23:16:15.760Z,9.43
2023-03-06T23:18:42.774Z,7.22
2023-03-06T23:21:12.014Z,7.00
2023-03-06T23:23:39.705Z,9.57
2023-03-06T23:26:08.150Z,4.90
2023-03-06T23:28:35.277Z,11.13
2023-03-06T23:31:09.486Z,9.40
2023-03-06T23:36:05.817Z,4.35
2023-03-06T23:38:33.450Z,9.32
2023-03-06T23:41:13.279Z,4.95
2023-03-06T23:43:40.506Z,4.78
2023-03-06T23:46:08.167Z,8.55
2023-03-06T23:48:37.040Z,6.43
2023-03-06T23:51:09.009Z,5.72
2023-03-06T23:53:36.201Z,6.32
2023-03-06T23:56:05.925Z,5.15
2023-03-06T23:58:33.323Z,6.88
